createdAt,value
2022-10-31T00:00:48.916Z,9.82
2022-10-31T00:03:16.242Z,20.60
2022-10-31T00:05:45.281Z,14.10
2022-10-31T00:08:11.940Z,16.33
2022-10-31T00:10:39.886Z,16.95
2022-10-31T00:13:07.179Z,16.77
2022-10-31T00:15:38.317Z,11.50
2022-10-31T00:18:06.387Z,14.77
2022-10-31T00:20:33.622Z,10.80
2022-10-31T00:23:03.910Z,20.30
2022-10-31T00:25:35.063Z,16.85
2022-10-31T00:28:02.137Z,13.15
2022-10-31T00:30:29.225Z,18.08
2022-10-31T00:32:56.093Z,15.57
2022-10-31T00:35:22.998Z,29.33
2022-10-31T00:37:49.725Z,15.88
2022-10-31T00:40:16.491Z,18.00
2022-10-31T00:42:43.155Z,26.85
2022-10-31T00:45:11.077Z,21.35
2022-10-31T00:47:38.011Z,14.40
2022-10-31T00:50:06.572Z,20.73
2022-10-31T00:52:33.243Z,20.55
2022-10-31T00:55:00.366Z,40.03
2022-10-31T00:57:27.214Z,18.67
2022-10-31T00:59:53.802Z,19.13
2022-10-31T01:02:20.645Z,21.05
2022-10-31T01:04:47.416Z,19.30
2022-10-31T01:07:14.999Z,24.85
2022-10-31T01:09:41.768Z,23.70
2022-10-31T01:12:08.917Z,25.10
2022-10-31T01:14:35.624Z,31.27
2022-10-31T01:17:02.665Z,25.30
2022-10-31T01:19:29.329Z,38.42
2022-10-31T01:21:56.526Z,30.52
2022-10-31T01:24:23.150Z,32.25
2022-10-31T01:26:49.877Z,30.95
2022-10-31T01:29:16.495Z,30.40
2022-10-31T01:31:43.377Z,38.72
2022-10-31T01:34:15.025Z,37.95
2022-10-31T01:36:42.252Z,39.50
2022-10-31T01:39:15.260Z,31.17
2022-10-31T01:41:44.786Z,32.08
2022-10-31T01:44:14.316Z,39.53
2022-10-31T01:46:49.412Z,37.97
2022-10-31T01:49:25.558Z,28.40
2022-10-31T01:51:59.218Z,43.90
2022-10-31T01:54:35.780Z,40.33
2022-10-31T01:57:04.789Z,29.40
2022-10-31T01:59:34.208Z,41.58
2022-10-31T02:02:01.285Z,38.38
2022-10-31T02:04:30.178Z,40.50
2022-10-31T02:07:19.350Z,36.05
2022-10-31T02:09:48.594Z,42.10
2022-10-31T02:12:16.225Z,38.22
2022-10-31T02:14:43.578Z,33.42
2022-10-31T02:17:10.279Z,39.08
2022-10-31T02:20:02.666Z,46.55
2022-10-31T02:22:41.025Z,30.88
2022-10-31T02:25:47.690Z,53.15
2022-10-31T02:28:50.726Z,48.25
2022-10-31T02:31:41.016Z,47.33
2022-10-31T02:34:30.500Z,33.33
2022-10-31T02:37:14.665Z,34.13
2022-10-31T02:39:57.442Z,46.13
2022-10-31T02:42:37.034Z,37.58
2022-10-31T02:45:15.334Z,40.58
2022-10-31T02:47:43.641Z,35.38
2022-10-31T02:50:22.812Z,35.15
2022-10-31T02:52:53.727Z,39.30
2022-10-31T02:55:26.563Z,48.22
2022-10-31T02:58:16.594Z,39.35
2022-10-31T03:01:10.651Z,38.63
2022-10-31T03:03:52.395Z,48.15
2022-10-31T03:06:38.881Z,27.47
2022-10-31T03:09:33.839Z,32.50
2022-10-31T03:12:06.270Z,32.40
2022-10-31T03:17:57.532Z,34.50
2022-10-31T03:20:36.361Z,38.40
2022-10-31T03:23:05.272Z,44.88
2022-10-31T03:25:33.565Z,42.03
2022-10-31T03:28:03.024Z,40.20
2022-10-31T03:30:33.206Z,33.05
2022-10-31T03:33:03.710Z,47.05
2022-10-31T03:35:33.154Z,32.08
2022-10-31T03:38:05.450Z,42.10
2022-10-31T03:40:37.736Z,34.60
2022-10-31T03:43:12.817Z,33.85
2022-10-31T03:45:46.315Z,39.58
2022-10-31T03:48:15.565Z,40.13
2022-10-31T03:51:02.203Z,30.45
2022-10-31T03:53:41.667Z,33.03
2022-10-31T03:56:11.023Z,26.50
2022-10-31T03:58:46.216Z,34.72
2022-10-31T04:01:16.614Z,40.38
2022-10-31T04:03:45.183Z,29.00
2022-10-31T04:06:15.419Z,28.75
2022-10-31T04:08:48.905Z,37.25
2022-10-31T04:11:17.296Z,35.47
2022-10-31T04:13:46.904Z,40.08
2022-10-31T04:16:17.179Z,39.05
2022-10-31T04:18:44.451Z,38.78
2022-10-31T04:21:11.149Z,34.17
2022-10-31T04:23:38.290Z,38.08
2022-10-31T04:26:04.999Z,35.47
2022-10-31T04:28:31.645Z,40.35
2022-10-31T04:30:58.281Z,30.98
2022-10-31T04:33:24.945Z,31.70
2022-10-31T04:35:51.624Z,33.28
2022-10-31T04:38:18.273Z,35.85
2022-10-31T04:40:46.400Z,34.95
2022-10-31T04:43:13.161Z,33.20
2022-10-31T04:45:39.980Z,34.17
2022-10-31T04:48:06.686Z,28.60
2022-10-31T04:50:33.251Z,33.88
2022-10-31T04:52:59.896Z,32.97
2022-10-31T04:55:26.536Z,36.67
2022-10-31T04:57:53.131Z,45.22
2022-10-31T05:00:22.172Z,26.42
2022-10-31T05:02:51.034Z,23.85
2022-10-31T05:05:19.780Z,31.23
2022-10-31T05:07:48.261Z,28.15
2022-10-31T05:10:20.397Z,28.55
2022-10-31T05:12:48.981Z,29.08
2022-10-31T05:15:16.994Z,25.27
2022-10-31T05:17:44.114Z,32.00
2022-10-31T05:20:12.240Z,22.40
2022-10-31T05:22:45.437Z,27.02
2022-10-31T05:25:12.557Z,32.65
2022-10-31T05:27:44.283Z,28.55
2022-10-31T05:30:12.877Z,26.70
2022-10-31T05:32:45.607Z,28.63
2022-10-31T05:35:18.267Z,25.63
2022-10-31T05:37:44.916Z,25.75
2022-10-31T05:40:14.157Z,32.40
2022-10-31T05:42:42.259Z,24.35
2022-10-31T05:45:14.625Z,26.00
2022-10-31T05:50:09.784Z,21.27
2022-10-31T05:52:36.715Z,41.15
2022-10-31T05:55:04.259Z,28.75
2022-10-31T05:57:33.431Z,41.30
2022-10-31T06:00:00.185Z,31.58
2022-10-31T06:02:27.685Z,26.88
2022-10-31T06:04:54.341Z,32.92
2022-10-31T06:07:21.114Z,26.00
2022-10-31T06:09:47.683Z,30.35
2022-10-31T06:12:14.350Z,30.98
2022-10-31T06:14:40.987Z,28.23
2022-10-31T06:17:07.640Z,29.30
2022-10-31T06:19:34.245Z,31.58
2022-10-31T06:22:00.975Z,28.38
2022-10-31T06:24:30.727Z,20.42
2022-10-31T06:26:57.379Z,21.80
2022-10-31T06:29:24.005Z,19.45
2022-10-31T06:31:52.830Z,16.55
2022-10-31T06:34:19.387Z,29.20
2022-10-31T06:36:47.760Z,24.05
2022-10-31T06:39:15.037Z,20.08
2022-10-31T06:41:42.451Z,17.20
2022-10-31T06:44:09.254Z,21.77
2022-10-31T06:46:35.853Z,20.83
2022-10-31T06:49:02.486Z,23.42
2022-10-31T06:51:29.130Z,21.58
2022-10-31T06:53:55.832Z,21.75
2022-10-31T06:56:22.511Z,19.27
2022-10-31T06:58:49.157Z,26.63
2022-10-31T07:01:15.876Z,21.02
2022-10-31T07:03:42.562Z,19.05
2022-10-31T07:06:09.184Z,17.70
2022-10-31T07:08:35.816Z,19.98
2022-10-31T07:11:02.432Z,19.25
2022-10-31T07:13:29.053Z,15.07
2022-10-31T07:16:00.707Z,18.52
2022-10-31T07:18:27.869Z,17.58
2022-10-31T07:20:54.649Z,13.77
2022-10-31T07:23:21.728Z,16.80
2022-10-31T07:25:48.466Z,12.43
2022-10-31T07:28:15.176Z,13.05
2022-10-31T07:30:41.793Z,21.05
2022-10-31T07:33:09.343Z,23.75
2022-10-31T07:35:36.191Z,18.55
2022-10-31T07:38:11.136Z,24.15
2022-10-31T07:40:38.013Z,23.30
2022-10-31T07:43:06.731Z,19.20
2022-10-31T07:45:38.458Z,15.65
2022-10-31T07:48:05.372Z,24.67
2022-10-31T07:50:34.886Z,29.27
2022-10-31T07:53:07.037Z,17.90
2022-10-31T07:55:34.641Z,24.02
2022-10-31T07:58:06.936Z,25.27
2022-10-31T08:03:12.498Z,19.25
2022-10-31T08:05:40.235Z,19.05
2022-10-31T08:08:10.167Z,21.10
2022-10-31T08:10:37.481Z,20.00
2022-10-31T08:13:14.940Z,20.70
2022-10-31T08:15:42.912Z,30.10
2022-10-31T08:18:16.040Z,26.77
2022-10-31T08:20:43.672Z,22.20
2022-10-31T08:23:12.087Z,31.55
2022-10-31T08:25:39.390Z,20.67
2022-10-31T08:28:07.698Z,24.45
2022-10-31T08:30:36.895Z,26.00
2022-10-31T08:33:12.396Z,22.05
2022-10-31T08:35:39.460Z,17.38
2022-10-31T08:38:06.576Z,24.60
2022-10-31T08:40:34.293Z,18.63
2022-10-31T08:43:03.234Z,26.50
2022-10-31T08:45:31.314Z,21.48
2022-10-31T08:48:00.051Z,28.20
2022-10-31T08:50:28.334Z,26.58
2022-10-31T08:53:09.764Z,27.25
2022-10-31T08:55:37.549Z,19.63
2022-10-31T08:58:06.052Z,30.85
2022-10-31T09:00:34.357Z,23.17
2022-10-31T09:03:22.522Z,15.38
2022-10-31T09:05:49.431Z,27.48
2022-10-31T09:08:17.459Z,24.35
2022-10-31T09:10:45.173Z,18.60
2022-10-31T09:13:14.618Z,27.83
2022-10-31T09:15:44.592Z,25.05
2022-10-31T09:18:12.655Z,33.28
2022-10-31T09:20:40.724Z,24.77
2022-10-31T09:23:13.085Z,23.77
2022-10-31T09:28:08.305Z,25.77
2022-10-31T09:30:36.597Z,23.08
2022-10-31T09:33:06.093Z,27.52
2022-10-31T09:35:33.462Z,26.95
2022-10-31T09:38:05.181Z,32.13
2022-10-31T09:40:40.900Z,24.70
2022-10-31T09:43:26.625Z,35.67
2022-10-31T09:46:05.281Z,22.98
2022-10-31T09:48:56.618Z,29.83
2022-10-31T09:51:43.021Z,22.33
2022-10-31T09:54:30.337Z,21.13
2022-10-31T09:57:01.084Z,33.95
2022-10-31T09:59:40.572Z,26.92
2022-10-31T10:02:18.518Z,27.85
2022-10-31T10:05:07.093Z,26.45
2022-10-31T10:07:33.659Z,26.38
2022-10-31T10:10:19.024Z,32.97
2022-10-31T10:13:08.135Z,29.20
2022-10-31T10:15:58.851Z,36.53
2022-10-31T10:18:49.065Z,25.60
2022-10-31T10:21:32.751Z,24.88
2022-10-31T10:24:02.176Z,38.10
2022-10-31T10:26:38.589Z,21.23
2022-10-31T10:29:20.003Z,23.17
2022-10-31T10:31:49.828Z,20.23
2022-10-31T10:34:36.105Z,19.65
2022-10-31T10:37:14.208Z,16.05
2022-10-31T10:39:46.209Z,21.85
2022-10-31T10:42:35.165Z,21.70
2022-10-31T10:45:34.846Z,18.00
2022-10-31T10:48:15.486Z,20.27
2022-10-31T10:50:51.143Z,21.00
2022-10-31T10:53:39.410Z,20.98
2022-10-31T10:56:31.486Z,25.65
2022-10-31T10:58:58.931Z,19.88
2022-10-31T11:01:26.286Z,26.67
2022-10-31T11:03:52.911Z,18.02
2022-10-31T11:06:28.810Z,18.08
2022-10-31T11:08:55.491Z,19.08
2022-10-31T11:11:28.783Z,18.77
2022-10-31T11:14:05.682Z,20.08
2022-10-31T11:16:41.455Z,18.73
2022-10-31T11:19:24.571Z,23.38
2022-10-31T11:21:54.265Z,24.40
2022-10-31T11:24:23.591Z,25.08
2022-10-31T11:26:51.856Z,16.70
2022-10-31T11:29:22.200Z,26.05
2022-10-31T11:31:53.082Z,21.45
2022-10-31T11:34:36.285Z,19.98
2022-10-31T11:37:17.005Z,23.80
2022-10-31T11:39:54.660Z,20.00
2022-10-31T11:42:24.129Z,22.67
2022-10-31T11:44:52.216Z,21.27
2022-10-31T11:47:29.421Z,20.05
2022-10-31T11:49:58.388Z,19.65
2022-10-31T11:52:28.744Z,20.85
2022-10-31T11:55:02.142Z,18.73
2022-10-31T11:57:30.283Z,20.48
2022-10-31T12:00:00.229Z,16.48
2022-10-31T12:02:27.775Z,15.98
2022-10-31T12:05:33.747Z,15.80
2022-10-31T12:08:04.286Z,19.15
2022-10-31T12:10:56.738Z,18.98
2022-10-31T12:13:33.302Z,28.33
2022-10-31T12:16:29.944Z,28.73
2022-10-31T12:19:14.396Z,24.65
2022-10-31T12:22:05.320Z,20.08
2022-10-31T12:24:46.504Z,25.52
2022-10-31T12:27:40.557Z,21.58
2022-10-31T12:30:19.896Z,25.38
2022-10-31T12:33:07.968Z,23.90
2022-10-31T12:36:20.553Z,18.17
2022-10-31T12:38:59.320Z,27.85
2022-10-31T12:41:47.973Z,16.52
2022-10-31T12:44:51.820Z,31.63
2022-10-31T12:47:39.645Z,15.52
2022-10-31T12:50:24.327Z,18.67
2022-10-31T12:53:35.807Z,15.73
2022-10-31T12:56:30.599Z,24.40
2022-10-31T12:59:27.786Z,27.13
2022-10-31T13:02:00.794Z,19.20
2022-10-31T13:05:02.156Z,21.38
2022-10-31T13:07:48.916Z,15.70
2022-10-31T13:10:28.180Z,18.35
2022-10-31T13:12:59.465Z,26.27
2022-10-31T13:15:30.441Z,18.03
2022-10-31T13:18:05.564Z,19.23
2022-10-31T13:20:42.661Z,23.27
2022-10-31T13:23:50.289Z,10.48
2022-10-31T13:26:48.322Z,25.27
2022-10-31T13:29:39.658Z,16.67
2022-10-31T13:32:07.956Z,14.57
2022-10-31T13:34:45.725Z,17.55
2022-10-31T13:37:38.996Z,14.30
2022-10-31T13:40:05.776Z,14.90
2022-10-31T13:42:44.476Z,12.68
2022-10-31T13:45:23.402Z,17.58
2022-10-31T13:48:01.210Z,16.25
2022-10-31T13:50:35.608Z,12.05
2022-10-31T13:53:17.612Z,22.52
2022-10-31T13:55:51.128Z,22.20
2022-10-31T13:58:26.259Z,20.55
2022-10-31T14:01:03.452Z,16.17
2022-10-31T14:03:57.783Z,17.02
2022-10-31T14:06:18.782Z,22.35
2022-10-31T14:08:52.864Z,20.13
2022-10-31T14:11:25.768Z,24.85
2022-10-31T14:13:52.560Z,17.98
2022-10-31T14:16:24.814Z,18.33
2022-10-31T14:19:15.626Z,23.15
2022-10-31T14:21:44.201Z,31.02
2022-10-31T14:24:29.295Z,28.00
2022-10-31T14:27:01.697Z,29.23
2022-10-31T14:32:08.600Z,28.38
2022-10-31T14:34:41.753Z,23.63
2022-10-31T14:37:39.378Z,31.35
2022-10-31T14:40:17.595Z,31.17
2022-10-31T14:42:59.338Z,33.75
2022-10-31T14:45:32.298Z,34.38
2022-10-31T14:48:14.581Z,32.45
2022-10-31T14:50:53.193Z,27.92
2022-10-31T14:53:35.947Z,33.15
2022-10-31T14:56:06.958Z,35.80
2022-10-31T14:58:46.731Z,37.45
2022-10-31T15:01:33.573Z,29.98
2022-10-31T15:04:26.891Z,28.30
2022-10-31T15:07:13.154Z,28.02
2022-10-31T15:09:44.302Z,34.35
2022-10-31T15:12:29.142Z,42.90
2022-10-31T15:14:57.223Z,37.05
2022-10-31T15:17:25.660Z,32.33
2022-10-31T15:19:53.693Z,28.50
2022-10-31T15:22:24.272Z,29.95
2022-10-31T15:24:57.076Z,30.67
2022-10-31T15:27:24.833Z,32.50
2022-10-31T15:29:56.954Z,27.02
2022-10-31T15:32:24.986Z,38.67
2022-10-31T15:34:53.671Z,33.47
2022-10-31T15:37:25.261Z,26.58
2022-10-31T15:39:52.545Z,30.98
2022-10-31T15:42:34.314Z,32.45
2022-10-31T15:45:18.641Z,36.95
2022-10-31T15:47:56.310Z,43.67
2022-10-31T15:50:41.366Z,41.50
2022-10-31T15:53:36.850Z,37.33
2022-10-31T15:56:09.257Z,35.80
2022-10-31T16:01:26.528Z,35.55
2022-10-31T16:04:11.429Z,33.78
2022-10-31T16:06:38.291Z,30.90
2022-10-31T16:09:21.710Z,39.70
2022-10-31T16:11:48.506Z,39.20
2022-10-31T16:14:25.840Z,32.28
2022-10-31T16:16:55.629Z,29.60
2022-10-31T16:19:32.169Z,28.42
2022-10-31T16:22:15.186Z,38.42
2022-10-31T16:24:54.469Z,28.23
2022-10-31T16:27:29.438Z,40.97
2022-10-31T16:29:57.913Z,37.13
2022-10-31T16:32:28.748Z,38.15
2022-10-31T16:35:10.578Z,31.80
2022-10-31T16:37:43.545Z,33.78
2022-10-31T16:40:15.105Z,34.85
2022-10-31T16:42:42.863Z,36.88
2022-10-31T16:45:17.992Z,29.35
2022-10-31T16:47:45.179Z,33.70
2022-10-31T16:50:20.606Z,31.02
2022-10-31T16:55:35.945Z,34.90
2022-10-31T16:58:03.676Z,34.88
2022-10-31T17:00:31.605Z,32.58
2022-10-31T17:02:58.228Z,33.20
2022-10-31T17:05:30.309Z,29.75
2022-10-31T17:08:00.883Z,33.42
2022-10-31T17:10:28.238Z,31.90
2022-10-31T17:12:57.357Z,33.97
2022-10-31T17:15:28.852Z,32.08
2022-10-31T17:17:55.835Z,33.10
2022-10-31T17:20:28.959Z,27.75
2022-10-31T17:22:56.569Z,30.58
2022-10-31T17:25:25.456Z,29.92
2022-10-31T17:27:52.191Z,41.42
2022-10-31T17:30:20.444Z,31.80
2022-10-31T17:32:47.854Z,33.72
2022-10-31T17:35:15.743Z,33.15
2022-10-31T17:37:43.727Z,34.85
2022-10-31T17:40:11.538Z,26.75
2022-10-31T17:42:38.679Z,28.05
2022-10-31T17:45:06.924Z,31.35
2022-10-31T17:47:34.212Z,25.88
2022-10-31T17:50:01.427Z,45.05
2022-10-31T17:52:28.029Z,38.67
2022-10-31T17:54:54.670Z,34.78
2022-10-31T17:57:21.341Z,30.38
2022-10-31T17:59:47.983Z,30.75
2022-10-31T18:02:14.662Z,35.83
2022-10-31T18:04:41.601Z,27.38
2022-10-31T18:07:08.455Z,29.48
2022-10-31T18:09:35.452Z,28.90
2022-10-31T18:12:02.076Z,32.05
2022-10-31T18:14:29.461Z,32.47
2022-10-31T18:16:56.078Z,34.42
2022-10-31T18:19:22.688Z,28.70
2022-10-31T18:21:49.319Z,41.35
2022-10-31T18:24:15.945Z,36.10
2022-10-31T18:26:42.554Z,43.67
2022-10-31T18:29:11.513Z,28.33
2022-10-31T18:31:38.351Z,35.63
2022-10-31T18:34:05.084Z,38.72
2022-10-31T18:36:31.916Z,46.50
2022-10-31T18:38:58.581Z,40.42
2022-10-31T18:41:25.336Z,34.03
2022-10-31T18:43:55.959Z,31.45
2022-10-31T18:46:22.569Z,36.65
2022-10-31T18:48:49.188Z,42.05
2022-10-31T18:51:18.194Z,39.17
2022-10-31T18:53:56.691Z,44.05
2022-10-31T18:56:24.201Z,42.67
2022-10-31T18:58:51.360Z,35.05
2022-10-31T19:01:20.020Z,46.53
2022-10-31T19:03:51.868Z,49.85
2022-10-31T19:06:18.492Z,38.42
2022-10-31T19:08:45.314Z,47.30
2022-10-31T19:11:14.225Z,49.05
2022-10-31T19:13:42.097Z,50.22
2022-10-31T19:16:12.012Z,44.58
2022-10-31T19:18:39.574Z,51.38
2022-10-31T19:21:07.861Z,46.67
2022-10-31T19:23:34.990Z,53.05
2022-10-31T19:26:02.250Z,62.80
2022-10-31T19:28:33.915Z,60.97
2022-10-31T19:31:00.854Z,45.55
2022-10-31T19:33:34.915Z,50.55
2022-10-31T19:36:08.319Z,47.17
2022-10-31T19:38:39.734Z,52.17
2022-10-31T19:41:11.817Z,47.67
2022-10-31T19:43:38.996Z,55.05
2022-10-31T19:46:07.753Z,47.95
2022-10-31T19:48:37.238Z,55.17
2022-10-31T19:51:09.940Z,52.88
2022-10-31T19:53:38.164Z,69.65
2022-10-31T19:56:10.645Z,60.95
2022-10-31T19:58:37.229Z,66.07
2022-10-31T20:01:11.490Z,50.53
2022-10-31T20:03:42.495Z,59.03
2022-10-31T20:06:33.273Z,60.95
2022-10-31T20:09:03.284Z,58.85
2022-10-31T20:11:30.242Z,60.92
2022-10-31T20:13:58.758Z,51.78
2022-10-31T20:16:26.890Z,67.40
2022-10-31T20:18:54.397Z,57.83
2022-10-31T20:21:26.292Z,59.47
2022-10-31T20:23:57.757Z,60.03
2022-10-31T20:26:25.535Z,52.53
2022-10-31T20:28:52.648Z,56.17
2022-10-31T20:31:22.081Z,59.60
2022-10-31T20:33:49.431Z,59.80
2022-10-31T20:36:19.447Z,67.72
2022-10-31T20:38:46.585Z,62.17
2022-10-31T20:41:13.825Z,62.80
2022-10-31T20:43:42.439Z,81.50
2022-10-31T20:46:20.720Z,64.82
2022-10-31T20:48:48.371Z,55.13
2022-10-31T20:51:20.956Z,68.88
2022-10-31T20:53:48.942Z,63.53
2022-10-31T20:56:17.891Z,63.78
2022-10-31T20:58:45.151Z,69.00
2022-10-31T21:01:15.597Z,56.00
2022-10-31T21:03:42.500Z,64.72
2022-10-31T21:06:09.899Z,76.35
2022-10-31T21:08:37.203Z,66.85
2022-10-31T21:11:09.142Z,76.03
2022-10-31T21:13:40.674Z,73.10
2022-10-31T21:16:15.137Z,63.50
2022-10-31T21:18:43.622Z,75.43
2022-10-31T21:21:14.035Z,65.95
2022-10-31T21:23:41.437Z,60.10
2022-10-31T21:26:11.310Z,56.15
2022-10-31T21:28:38.008Z,63.83
2022-10-31T21:31:13.909Z,56.20
2022-10-31T21:33:41.820Z,59.65
2022-10-31T21:36:09.221Z,73.53
2022-10-31T21:38:36.199Z,60.78
2022-10-31T21:41:05.682Z,61.33
2022-10-31T21:43:34.900Z,54.80
2022-10-31T21:46:26.560Z,64.32
2022-10-31T21:48:54.101Z,63.15
2022-10-31T21:51:29.400Z,60.50
2022-10-31T21:54:15.662Z,67.07
2022-10-31T21:56:43.042Z,54.65
2022-10-31T21:59:10.317Z,57.28
2022-10-31T22:01:37.522Z,60.50
2022-10-31T22:04:04.665Z,60.08
2022-10-31T22:06:31.699Z,62.03
2022-10-31T22:09:00.333Z,65.28
2022-10-31T22:11:30.195Z,66.00
2022-10-31T22:13:59.485Z,74.15
2022-10-31T22:16:28.890Z,67.43
2022-10-31T22:18:58.585Z,65.63
2022-10-31T22:21:27.555Z,57.30
2022-10-31T22:23:56.772Z,66.00
2022-10-31T22:26:24.365Z,73.75
2022-10-31T22:29:02.237Z,69.18
2022-10-31T22:31:30.593Z,62.80
2022-10-31T22:33:57.835Z,69.25
2022-10-31T22:36:26.767Z,71.65
2022-10-31T22:38:53.785Z,66.38
2022-10-31T22:41:23.101Z,65.90
2022-10-31T22:43:50.101Z,70.75
2022-10-31T22:46:20.138Z,53.45
2022-10-31T22:48:49.430Z,57.28
2022-10-31T22:51:22.109Z,61.58
2022-10-31T22:53:49.021Z,51.53
2022-10-31T22:56:19.304Z,52.72
2022-10-31T22:58:46.382Z,60.40
2022-10-31T23:01:18.938Z,62.58
2022-10-31T23:03:46.047Z,55.92
2022-10-31T23:06:15.654Z,61.58
2022-10-31T23:08:43.298Z,54.78
2022-10-31T23:11:23.892Z,66.13
2022-10-31T23:14:11.914Z,61.80
2022-10-31T23:16:47.845Z,48.67
2022-10-31T23:19:20.350Z,67.78
2022-10-31T23:21:56.669Z,73.32
2022-10-31T23:24:29.943Z,69.05
2022-10-31T23:27:07.713Z,72.60
2022-10-31T23:29:35.363Z,63.63
2022-10-31T23:32:03.016Z,56.97
2022-10-31T23:34:29.714Z,47.65
2022-10-31T23:36:56.794Z,59.15
2022-10-31T23:39:30.677Z,61.65
2022-10-31T23:41:57.280Z,63.80
2022-10-31T23:44:23.919Z,58.95
2022-10-31T23:46:50.686Z,68.43
2022-10-31T23:49:17.387Z,58.20
2022-10-31T23:51:44.105Z,55.30
2022-10-31T23:54:10.796Z,53.47
2022-10-31T23:56:37.529Z,48.35
2022-10-31T23:59:05.631Z,61.72
